Time;durP1;ratioP1;P1;durP2;ratioP2;P2;SDS_P1;SDS_P2;PMS_P1;PMS_P2;Temp;Humidity;BMP_temperature;BMP_pressure;BME280_temperature;BME280_humidity;BME280_pressure;Samples;Min_cycle;Max_cycle;Signal;HPM_P1;HPM_P2
2023/12/18 00:00:35;;;;;;;;;;;19.40;59.50;;;;;;5073951;28;19952;-62
2023/12/18 00:03:01;;;;;;;;;;;19.40;59.50;;;;;;5074474;28;19967;-62
2023/12/18 00:05:26;;;;;;;;;;;19.30;59.40;;;;;;5056913;28;19955;-61
2023/12/18 00:07:52;;;;;;;;;;;19.40;59.50;;;;;;5073366;28;19959;-63
2023/12/18 00:10:18;;;;;;;;;;;19.30;59.40;;;;;;5074602;28;20023;-62
2023/12/18 00:12:44;;;;;;;;;;;19.30;59.40;;;;;;5074580;28;19929;-62
2023/12/18 00:15:09;;;;;;;;;;;19.30;59.40;;;;;;5073359;28;19924;-62
2023/12/18 00:17:35;;;;;;;;;;;19.30;59.40;;;;;;5074382;28;19968;-62
2023/12/18 00:20:00;;;;;;;;;;;19.30;59.30;;;;;;5055755;28;19928;-62
2023/12/18 00:22:26;;;;;;;;;;;19.30;59.30;;;;;;5056074;28;19928;-61
2023/12/18 00:24:51;;;;;;;;;;;19.30;59.30;;;;;;5035999;28;19982;-62
2023/12/18 00:27:17;;;;;;;;;;;19.20;59.30;;;;;;5053691;28;19931;-61
2023/12/18 00:29:42;;;;;;;;;;;19.20;59.30;;;;;;5053364;28;19928;-62
2023/12/18 00:32:08;;;;;;;;;;;19.20;59.20;;;;;;5053815;28;19925;-62
2023/12/18 00:34:33;;;;;;;;;;;19.20;59.20;;;;;;5069212;28;19931;-62
2023/12/18 00:36:58;;;;;;;;;;;19.20;59.20;;;;;;5072901;28;19931;-61
2023/12/18 00:39:24;;;;;;;;;;;19.20;59.20;;;;;;5073541;28;19924;-62
2023/12/18 00:41:51;;;;;;;;;;;19.20;59.20;;;;;;5074126;28;19924;-62
2023/12/18 00:44:16;;;;;;;;;;;19.20;59.20;;;;;;5073261;28;19924;-62
2023/12/18 00:46:42;;;;;;;;;;;19.20;59.20;;;;;;5073944;28;19924;-62
2023/12/18 00:49:07;;;;;;;;;;;19.20;59.20;;;;;;5073466;28;19921;-62
2023/12/18 00:51:33;;;;;;;;;;;19.20;59.20;;;;;;5035992;28;19947;-62
2023/12/18 00:53:58;;;;;;;;;;;19.20;59.10;;;;;;5053474;28;20019;-61
2023/12/18 00:56:24;;;;;;;;;;;19.20;59.10;;;;;;5035628;28;19921;-61
2023/12/18 00:58:49;;;;;;;;;;;19.20;59.20;;;;;;5052943;28;19967;-62
2023/12/18 01:01:15;;;;;;;;;;;19.10;59.10;;;;;;5043908;28;19928;-62
2023/12/18 01:03:40;;;;;;;;;;;19.10;59.10;;;;;;5052667;28;19970;-62
2023/12/18 01:06:06;;;;;;;;;;;19.10;59.80;;;;;;5035083;28;19937;-61
2023/12/18 01:08:31;;;;;;;;;;;19.10;59.10;;;;;;5035823;28;19924;-61
2023/12/18 01:10:57;;;;;;;;;;;19.10;59.10;;;;;;5034102;28;19931;-61
2023/12/18 01:13:22;;;;;;;;;;;19.10;59.10;;;;;;5053410;28;19925;-61
2023/12/18 01:15:48;;;;;;;;;;;19.10;59.10;;;;;;5053500;28;20023;-61
2023/12/18 01:18:13;;;;;;;;;;;19.10;59.00;;;;;;5052186;28;19925;-61
2023/12/18 01:20:39;;;;;;;;;;;19.10;59.00;;;;;;5053396;28;19992;-62
2023/12/18 01:23:05;;;;;;;;;;;19.00;59.00;;;;;;5052826;28;20008;-61
2023/12/18 01:25:31;;;;;;;;;;;19.10;59.00;;;;;;5052418;28;19931;-61
2023/12/18 01:27:56;;;;;;;;;;;19.00;59.00;;;;;;5052808;28;19971;-63
2023/12/18 01:30:22;;;;;;;;;;;19.10;59.00;;;;;;5052481;28;19925;-62
2023/12/18 01:32:47;;;;;;;;;;;19.00;58.90;;;;;;5034726;28;19932;-63
2023/12/18 01:35:13;;;;;;;;;;;19.00;59.00;;;;;;5035277;28;19920;-61
2023/12/18 01:37:38;;;;;;;;;;;19.00;59.00;;;;;;5035230;28;19931;-62
2023/12/18 01:40:04;;;;;;;;;;;19.00;58.90;;;;;;5033949;28;20395;-61
2023/12/18 01:42:31;;;;;;;;;;;19.00;58.90;;;;;;5055233;28;20010;-63
2023/12/18 01:44:56;;;;;;;;;;;19.00;59.00;;;;;;5034905;28;19976;-62
2023/12/18 01:47:22;;;;;;;;;;;19.00;58.90;;;;;;5034621;28;20446;-62
2023/12/18 01:49:49;;;;;;;;;;;19.00;58.90;;;;;;5035057;28;20340;-62
2023/12/18 01:52:14;;;;;;;;;;;19.00;58.90;;;;;;5034819;28;19925;-62
2023/12/18 01:54:39;;;;;;;;;;;19.00;59.00;;;;;;5052241;28;20303;-62
2023/12/18 01:57:05;;;;;;;;;;;19.00;58.90;;;;;;5018256;28;19928;-62
2023/12/18 01:59:30;;;;;;;;;;;19.00;59.00;;;;;;5034946;28;19925;-61
2023/12/18 02:01:56;;;;;;;;;;;19.00;58.90;;;;;;5017815;28;19932;-62
2023/12/18 02:04:21;;;;;;;;;;;19.00;58.90;;;;;;5035126;28;19925;-62
2023/12/18 02:06:47;;;;;;;;;;;19.00;58.90;;;;;;5034310;28;19979;-61
2023/12/18 02:09:13;;;;;;;;;;;19.00;58.90;;;;;;5047073;28;19982;-62
2023/12/18 02:11:38;;;;;;;;;;;19.00;58.90;;;;;;5035053;28;19925;-62
2023/12/18 02:14:04;;;;;;;;;;;19.00;58.80;;;;;;5034024;28;20003;-63
2023/12/18 02:16:29;;;;;;;;;;;19.00;58.90;;;;;;5052812;28;19975;-62
2023/12/18 02:18:55;;;;;;;;;;;19.00;58.90;;;;;;5018178;28;19932;-62
2023/12/18 02:21:21;;;;;;;;;;;19.00;58.80;;;;;;5061182;28;19924;-62
2023/12/18 02:23:47;;;;;;;;;;;19.00;58.80;;;;;;5054293;28;20004;-62
2023/12/18 02:26:12;;;;;;;;;;;19.00;58.80;;;;;;5054666;28;19929;-61
2023/12/18 02:28:38;;;;;;;;;;;19.00;58.80;;;;;;5071390;28;19931;-62
2023/12/18 02:31:03;;;;;;;;;;;19.00;58.80;;;;;;5054545;28;20011;-62
2023/12/18 02:33:29;;;;;;;;;;;19.00;58.80;;;;;;5072448;28;19924;-62
2023/12/18 02:35:55;;;;;;;;;;;19.00;58.70;;;;;;5053442;28;20398;-62
2023/12/18 02:38:21;;;;;;;;;;;19.10;58.80;;;;;;5054744;28;19929;-62
2023/12/18 02:40:46;;;;;;;;;;;19.10;58.80;;;;;;5072560;28;19979;-62
2023/12/18 02:43:12;;;;;;;;;;;19.10;58.80;;;;;;5074396;28;20435;-62
2023/12/18 02:45:37;;;;;;;;;;;19.00;58.70;;;;;;5058179;28;19931;-62
2023/12/18 02:48:04;;;;;;;;;;;19.00;58.70;;;;;;5075674;28;19925;-62
2023/12/18 02:50:29;;;;;;;;;;;19.10;58.80;;;;;;5075499;28;19924;-61
2023/12/18 02:52:55;;;;;;;;;;;19.10;58.80;;;;;;5075899;28;19925;-61
2023/12/18 02:55:21;;;;;;;;;;;19.10;58.70;;;;;;5075917;28;19932;-61
2023/12/18 02:57:46;;;;;;;;;;;19.10;58.70;;;;;;5074926;28;19924;-62
2023/12/18 03:00:12;;;;;;;;;;;19.10;58.70;;;;;;5074243;28;19928;-61
2023/12/18 03:02:37;;;;;;;;;;;19.10;58.70;;;;;;5055439;28;19925;-62
2023/12/18 03:05:03;;;;;;;;;;;19.10;58.70;;;;;;5054264;28;20292;-62
2023/12/18 03:07:29;;;;;;;;;;;19.10;58.70;;;;;;5055464;28;19925;-62
2023/12/18 03:09:54;;;;;;;;;;;19.10;58.70;;;;;;5037834;28;20288;-62
2023/12/18 03:12:20;;;;;;;;;;;19.10;58.70;;;;;;5037310;28;19931;-62
2023/12/18 03:14:45;;;;;;;;;;;19.10;58.60;;;;;;5055457;28;19928;-61
2023/12/18 03:17:11;;;;;;;;;;;19.10;58.60;;;;;;5054644;28;20123;-62
2023/12/18 03:19:36;;;;;;;;;;;19.10;58.60;;;;;;5055554;28;19924;-62
2023/12/18 03:22:02;;;;;;;;;;;19.10;58.70;;;;;;5037478;28;20353;-62
2023/12/18 03:24:27;;;;;;;;;;;19.10;58.60;;;;;;5054643;28;20084;-62
2023/12/18 03:26:53;;;;;;;;;;;19.20;58.60;;;;;;5054742;28;19994;-62
2023/12/18 03:29:18;;;;;;;;;;;19.20;58.60;;;;;;5037323;28;19928;-62
2023/12/18 03:31:43;;;;;;;;;;;19.20;58.60;;;;;;5036509;28;19924;-62
2023/12/18 03:34:09;;;;;;;;;;;19.20;58.60;;;;;;5037375;28;19936;-62
2023/12/18 03:36:34;;;;;;;;;;;19.20;58.60;;;;;;5055369;28;19925;-62
2023/12/18 03:39:00;;;;;;;;;;;19.20;58.60;;;;;;5054028;28;20339;-62
2023/12/18 03:41:25;;;;;;;;;;;19.20;58.60;;;;;;5054960;28;19928;-62
2023/12/18 03:43:51;;;;;;;;;;;19.20;58.60;;;;;;5055114;28;19972;-62
2023/12/18 03:46:17;;;;;;;;;;;19.20;58.60;;;;;;5054404;28;19934;-62
2023/12/18 03:48:42;;;;;;;;;;;19.20;58.60;;;;;;5055125;28;19929;-62
2023/12/18 03:51:09;;;;;;;;;;;19.20;58.60;;;;;;5054619;28;20284;-62
2023/12/18 03:53:35;;;;;;;;;;;19.20;58.50;;;;;;5019120;28;20495;-62
2023/12/18 03:56:00;;;;;;;;;;;19.20;58.50;;;;;;5054760;28;19921;-62
2023/12/18 03:58:26;;;;;;;;;;;19.20;58.50;;;;;;5037200;28;19932;-62
2023/12/18 04:00:51;;;;;;;;;;;19.20;58.50;;;;;;5054195;28;20456;-62
2023/12/18 04:03:16;;;;;;;;;;;19.20;58.50;;;;;;5036856;28;19929;-62
2023/12/18 04:05:42;;;;;;;;;;;19.20;58.50;;;;;;5054416;28;19924;-62
2023/12/18 04:08:07;;;;;;;;;;;19.30;58.50;;;;;;5053432;28;19970;-62
2023/12/18 04:10:33;;;;;;;;;;;19.30;58.50;;;;;;5036924;28;19925;-62
2023/12/18 04:12:58;;;;;;;;;;;19.30;58.50;;;;;;5036408;28;19924;-62
2023/12/18 04:15:24;;;;;;;;;;;19.30;58.50;;;;;;5036133;28;19921;-62
2023/12/18 04:17:50;;;;;;;;;;;19.30;58.50;;;;;;5036795;28;19974;-62
2023/12/18 04:20:16;;;;;;;;;;;19.30;58.50;;;;;;5037094;28;19960;-62
2023/12/18 04:22:41;;;;;;;;;;;19.30;58.50;;;;;;5073395;28;20366;-62
2023/12/18 04:25:07;;;;;;;;;;;19.30;58.50;;;;;;5055798;28;19970;-62
2023/12/18 04:27:32;;;;;;;;;;;19.30;58.40;;;;;;5055668;28;20003;-62
2023/12/18 04:29:58;;;;;;;;;;;19.30;58.50;;;;;;5055936;28;20268;-62
2023/12/18 04:32:23;;;;;;;;;;;19.30;58.40;;;;;;5056315;28;19924;-62
2023/12/18 04:34:49;;;;;;;;;;;19.40;58.50;;;;;;5073235;28;20283;-62
2023/12/18 04:37:14;;;;;;;;;;;19.40;58.50;;;;;;5055938;28;20020;-62
2023/12/18 04:39:40;;;;;;;;;;;19.40;58.50;;;;;;5074148;28;20244;-62
2023/12/18 04:42:05;;;;;;;;;;;19.40;58.50;;;;;;5072762;28;19955;-62
2023/12/18 04:44:30;;;;;;;;;;;19.40;58.40;;;;;;5073796;28;19931;-62
2023/12/18 04:46:56;;;;;;;;;;;19.40;58.40;;;;;;5055563;28;19936;-62
2023/12/18 04:49:21;;;;;;;;;;;19.40;58.40;;;;;;5072932;28;19931;-62
2023/12/18 04:51:47;;;;;;;;;;;19.40;59.10;;;;;;5073884;28;19925;-62
2023/12/18 04:54:13;;;;;;;;;;;19.40;58.40;;;;;;5073502;28;20432;-62
2023/12/18 04:56:38;;;;;;;;;;;19.50;58.40;;;;;;5072936;28;20457;-62
2023/12/18 04:59:04;;;;;;;;;;;19.50;58.40;;;;;;5055724;28;19925;-62
2023/12/18 05:01:29;;;;;;;;;;;19.50;58.30;;;;;;5050901;28;20023;-62
2023/12/18 05:03:55;;;;;;;;;;;19.50;58.30;;;;;;5068552;28;20336;-62
2023/12/18 05:06:20;;;;;;;;;;;19.50;58.30;;;;;;5072203;28;19924;-62
2023/12/18 05:08:46;;;;;;;;;;;19.50;58.30;;;;;;5055150;28;20308;-62
2023/12/18 05:11:12;;;;;;;;;;;19.50;58.30;;;;;;5072610;28;19974;-62
2023/12/18 05:13:37;;;;;;;;;;;19.50;58.30;;;;;;5055622;28;19924;-62
2023/12/18 05:16:03;;;;;;;;;;;19.60;58.30;;;;;;5055041;28;20459;-62
2023/12/18 05:18:29;;;;;;;;;;;19.60;58.30;;;;;;5072730;28;19928;-62
2023/12/18 05:20:57;;;;;;;;;;;19.60;58.30;;;;;;5073170;28;19978;-62
2023/12/18 05:23:26;;;;;;;;;;;19.60;58.30;;;;;;5073039;28;19924;-62
2023/12/18 05:25:51;;;;;;;;;;;19.60;58.20;;;;;;5072619;28;19925;-62
2023/12/18 05:28:17;;;;;;;;;;;19.60;58.20;;;;;;5072998;28;19932;-62
2023/12/18 05:30:43;;;;;;;;;;;19.60;58.20;;;;;;5072992;28;20022;-62
2023/12/18 05:33:09;;;;;;;;;;;19.60;58.20;;;;;;5054552;28;19924;-62
2023/12/18 05:35:35;;;;;;;;;;;19.70;58.20;;;;;;5073298;28;19966;-62
2023/12/18 05:38:00;;;;;;;;;;;19.70;58.90;;;;;;5053999;28;19966;-62
2023/12/18 05:40:25;;;;;;;;;;;19.70;58.20;;;;;;5055307;28;19936;-61
2023/12/18 05:42:51;;;;;;;;;;;19.70;58.20;;;;;;5073028;28;20292;-62
2023/12/18 05:45:16;;;;;;;;;;;19.70;58.20;;;;;;5054624;28;19928;-62
2023/12/18 05:47:42;;;;;;;;;;;19.70;58.20;;;;;;5055079;28;19933;-61
2023/12/18 05:50:07;;;;;;;;;;;19.70;58.20;;;;;;5072870;28;19928;-62
2023/12/18 05:52:33;;;;;;;;;;;19.70;58.20;;;;;;5053972;28;19931;-62
2023/12/18 05:54:58;;;;;;;;;;;19.70;58.10;;;;;;5072510;28;20024;-62
2023/12/18 05:57:24;;;;;;;;;;;19.70;58.20;;;;;;5073176;28;20261;-62
2023/12/18 05:59:49;;;;;;;;;;;19.70;58.10;;;;;;5054080;28;19932;-62
2023/12/18 06:02:15;;;;;;;;;;;19.70;58.10;;;;;;5051205;28;19929;-58
2023/12/18 06:04:43;;;;;;;;;;;19.80;58.20;;;;;;5036899;28;19947;-62
2023/12/18 06:07:09;;;;;;;;;;;19.80;58.10;;;;;;5033976;28;19924;-62
2023/12/18 06:09:34;;;;;;;;;;;19.80;58.10;;;;;;5052771;28;19948;-61
2023/12/18 06:12:00;;;;;;;;;;;19.80;58.10;;;;;;5034587;28;19932;-62
2023/12/18 06:14:25;;;;;;;;;;;19.80;58.00;;;;;;5051902;28;20012;-62
2023/12/18 06:16:51;;;;;;;;;;;19.80;58.10;;;;;;5053975;28;20352;-61
2023/12/18 06:19:16;;;;;;;;;;;19.80;58.00;;;;;;5038858;28;19936;-61
2023/12/18 06:21:42;;;;;;;;;;;19.80;58.10;;;;;;5038014;28;20258;-61
2023/12/18 06:24:08;;;;;;;;;;;19.80;58.10;;;;;;5068382;28;20517;-61
2023/12/18 06:26:33;;;;;;;;;;;19.80;58.00;;;;;;5076338;28;20007;-62
2023/12/18 06:28:59;;;;;;;;;;;19.80;58.00;;;;;;5075601;28;19931;-61
2023/12/18 06:31:24;;;;;;;;;;;19.90;58.10;;;;;;5076664;28;20275;-62
2023/12/18 06:33:50;;;;;;;;;;;19.80;58.00;;;;;;5076551;28;19974;-61
2023/12/18 06:36:16;;;;;;;;;;;19.80;58.00;;;;;;5075310;28;19947;-62
2023/12/18 06:38:42;;;;;;;;;;;19.90;58.00;;;;;;5076095;28;20414;-62
2023/12/18 06:41:07;;;;;;;;;;;19.90;58.10;;;;;;5057847;28;19925;-61
2023/12/18 06:43:33;;;;;;;;;;;19.90;58.10;;;;;;5057428;28;19925;-62
2023/12/18 06:45:59;;;;;;;;;;;19.90;58.00;;;;;;5075977;28;20015;-61
2023/12/18 06:48:25;;;;;;;;;;;19.90;58.00;;;;;;5075135;28;19925;-62
2023/12/18 06:50:50;;;;;;;;;;;19.90;58.00;;;;;;5076261;28;20445;-61
2023/12/18 06:53:16;;;;;;;;;;;19.90;58.00;;;;;;5075320;28;20011;-61
2023/12/18 06:55:41;;;;;;;;;;;19.90;58.00;;;;;;5057299;28;19965;-61
2023/12/18 06:58:07;;;;;;;;;;;19.90;58.00;;;;;;5075565;28;19982;-61
2023/12/18 07:00:32;;;;;;;;;;;19.90;58.00;;;;;;5058330;28;19932;-61
2023/12/18 07:02:58;;;;;;;;;;;19.90;58.00;;;;;;5056820;28;20279;-61
2023/12/18 07:05:23;;;;;;;;;;;19.90;58.00;;;;;;5075846;28;19963;-61
2023/12/18 07:07:49;;;;;;;;;;;19.90;58.00;;;;;;5057884;28;19990;-61
2023/12/18 07:10:15;;;;;;;;;;;19.90;58.00;;;;;;5074636;28;19924;-62
2023/12/18 07:12:40;;;;;;;;;;;19.90;57.90;;;;;;5057760;28;19925;-62
2023/12/18 07:15:06;;;;;;;;;;;20.00;58.00;;;;;;5075137;28;19989;-61
2023/12/18 07:17:31;;;;;;;;;;;20.00;58.00;;;;;;5074918;28;19925;-62
2023/12/18 07:19:57;;;;;;;;;;;20.00;58.00;;;;;;5057198;28;20007;-62
2023/12/18 07:22:23;;;;;;;;;;;20.00;58.00;;;;;;5057709;28;20395;-61
2023/12/18 07:24:48;;;;;;;;;;;20.00;58.00;;;;;;5074934;28;20337;-62
2023/12/18 07:27:14;;;;;;;;;;;20.00;58.00;;;;;;5073484;28;19924;-62
2023/12/18 07:29:40;;;;;;;;;;;20.00;58.00;;;;;;5054491;28;19931;-62
2023/12/18 07:32:05;;;;;;;;;;;20.00;58.00;;;;;;5054331;28;19925;-61
2023/12/18 07:34:31;;;;;;;;;;;20.00;58.00;;;;;;5055226;28;20023;-61
2023/12/18 07:36:56;;;;;;;;;;;20.00;57.90;;;;;;5054985;28;19928;-61
2023/12/18 07:39:22;;;;;;;;;;;20.00;57.90;;;;;;5054253;28;19925;-60
2023/12/18 07:41:47;;;;;;;;;;;20.00;57.90;;;;;;5055138;28;20380;-61
2023/12/18 07:44:13;;;;;;;;;;;20.00;58.00;;;;;;5036784;28;20289;-61
2023/12/18 07:46:39;;;;;;;;;;;20.00;57.90;;;;;;5054210;28;19925;-61
2023/12/18 07:49:04;;;;;;;;;;;20.00;57.80;;;;;;5054383;28;19925;-61
2023/12/18 07:51:30;;;;;;;;;;;20.00;57.90;;;;;;5054645;28;19925;-61
2023/12/18 07:53:55;;;;;;;;;;;20.00;57.90;;;;;;5036586;28;19933;-61
2023/12/18 07:56:21;;;;;;;;;;;20.00;57.90;;;;;;5037170;28;19961;-61
2023/12/18 07:58:47;;;;;;;;;;;20.10;58.00;;;;;;5056099;28;19994;-61
2023/12/18 08:01:16;;;;;;;;;;;20.00;57.90;;;;;;5072628;28;20368;-61
2023/12/18 08:03:42;;;;;;;;;;;20.10;58.10;;;;;;5047067;28;19924;-60
2023/12/18 08:06:07;;;;;;;;;;;20.10;58.10;;;;;;5052736;28;20020;-61
2023/12/18 08:08:33;;;;;;;;;;;20.10;58.10;;;;;;5056485;28;20023;-61
2023/12/18 08:10:58;;;;;;;;;;;20.10;58.30;;;;;;5074207;28;19924;-59
2023/12/18 08:13:24;;;;;;;;;;;20.10;58.20;;;;;;5071672;28;20011;-61
2023/12/18 08:15:49;;;;;;;;;;;20.10;58.50;;;;;;5052071;28;19932;-62
2023/12/18 08:18:15;;;;;;;;;;;20.10;58.60;;;;;;5056297;28;19925;-61
2023/12/18 08:20:42;;;;;;;;;;;20.10;58.60;;;;;;5073696;28;20426;-60
2023/12/18 08:23:07;;;;;;;;;;;20.10;58.70;;;;;;5055719;28;19929;-60
2023/12/18 08:25:33;;;;;;;;;;;20.10;58.70;;;;;;5055789;28;19925;-60
2023/12/18 08:27:58;;;;;;;;;;;20.10;58.80;;;;;;5054884;28;19928;-60
2023/12/18 08:30:24;;;;;;;;;;;20.10;58.80;;;;;;5074145;28;19925;-60
2023/12/18 08:32:49;;;;;;;;;;;20.20;59.00;;;;;;5056473;28;19970;-60
2023/12/18 08:35:14;;;;;;;;;;;20.20;59.00;;;;;;5073403;28;19924;-60
2023/12/18 08:37:40;;;;;;;;;;;20.20;59.00;;;;;;5073867;28;19924;-60
2023/12/18 08:40:06;;;;;;;;;;;20.20;59.00;;;;;;5072636;28;19924;-60
2023/12/18 08:42:31;;;;;;;;;;;20.20;59.00;;;;;;5055265;28;20346;-61
2023/12/18 08:44:57;;;;;;;;;;;20.20;59.10;;;;;;5073503;28;19928;-60
2023/12/18 08:47:22;;;;;;;;;;;20.20;59.00;;;;;;5069653;28;20368;-60
2023/12/18 08:49:48;;;;;;;;;;;20.20;59.10;;;;;;5069262;28;19931;-60
2023/12/18 08:52:13;;;;;;;;;;;20.20;59.10;;;;;;5063073;28;20418;-60
2023/12/18 08:54:39;;;;;;;;;;;20.20;59.00;;;;;;5063254;28;19924;-60
2023/12/18 08:57:04;;;;;;;;;;;20.20;59.10;;;;;;5061242;28;20398;-60
2023/12/18 08:59:30;;;;;;;;;;;20.20;59.00;;;;;;5064876;28;19931;-59
2023/12/18 09:01:55;;;;;;;;;;;20.20;59.10;;;;;;5044553;28;20347;-59
2023/12/18 09:04:20;;;;;;;;;;;20.20;59.00;;;;;;5065035;28;19928;-59
2023/12/18 09:06:46;;;;;;;;;;;20.20;59.00;;;;;;5035454;28;20458;-58
2023/12/18 09:09:11;;;;;;;;;;;20.20;59.10;;;;;;5058329;28;19925;-58
2023/12/18 09:11:37;;;;;;;;;;;20.20;59.10;;;;;;5065124;28;19921;-58
2023/12/18 09:14:07;;;;;;;;;;;20.20;59.20;;;;;;5048253;28;20253;-58
2023/12/18 09:16:32;;;;;;;;;;;20.20;59.10;;;;;;5072270;28;19946;-57
2023/12/18 09:18:58;;;;;;;;;;;20.20;59.10;;;;;;5072556;28;19928;-58
2023/12/18 09:21:23;;;;;;;;;;;20.20;59.10;;;;;;5073176;28;19924;-58
2023/12/18 09:23:49;;;;;;;;;;;20.20;59.20;;;;;;5054018;28;20042;-59
2023/12/18 09:26:15;;;;;;;;;;;20.20;59.30;;;;;;5072686;28;19928;-60
2023/12/18 09:28:40;;;;;;;;;;;20.20;59.40;;;;;;5054690;28;19936;-61
2023/12/18 09:31:06;;;;;;;;;;;20.20;59.40;;;;;;5053796;28;20346;-60
2023/12/18 09:33:33;;;;;;;;;;;20.20;59.40;;;;;;5055298;28;19932;-60
2023/12/18 09:36:01;;;;;;;;;;;20.20;59.50;;;;;;5071834;28;19924;-61
2023/12/18 09:38:27;;;;;;;;;;;20.20;59.50;;;;;;5054072;28;20389;-60
2023/12/18 09:40:52;;;;;;;;;;;20.20;59.40;;;;;;5054367;28;20432;-60
2023/12/18 09:43:18;;;;;;;;;;;20.20;59.50;;;;;;5072481;28;20019;-59
2023/12/18 09:45:47;;;;;;;;;;;20.20;59.50;;;;;;5053877;28;20434;-58
2023/12/18 09:48:12;;;;;;;;;;;20.20;59.50;;;;;;5072667;28;19935;-60
2023/12/18 09:50:38;;;;;;;;;;;20.20;59.40;;;;;;5054883;28;19924;-60
2023/12/18 09:53:10;;;;;;;;;;;20.20;59.40;;;;;;5077625;28;19931;-58
2023/12/18 09:55:36;;;;;;;;;;;20.10;59.40;;;;;;5079505;28;19935;-59
2023/12/18 09:58:01;;;;;;;;;;;20.10;59.30;;;;;;5061173;28;19929;-60
2023/12/18 10:00:27;;;;;;;;;;;20.10;59.20;;;;;;5030013;28;19973;-59
2023/12/18 10:02:54;;;;;;;;;;;20.10;59.20;;;;;;5041474;28;19925;-60
2023/12/18 10:05:19;;;;;;;;;;;20.10;59.10;;;;;;5071235;28;19986;-63
2023/12/18 10:07:45;;;;;;;;;;;20.10;59.90;;;;;;5061189;28;20349;-60
2023/12/18 10:10:10;;;;;;;;;;;20.10;59.50;;;;;;5073728;28;19928;-60
2023/12/18 10:12:38;;;;;;;;;;;20.10;59.50;;;;;;5031959;28;19929;-58
2023/12/18 10:15:11;;;;;;;;;;;20.10;59.50;;;;;;5078790;28;20329;-59
2023/12/18 10:17:40;;;;;;;;;;;20.10;59.50;;;;;;5079207;28;19975;-59
2023/12/18 10:20:06;;;;;;;;;;;20.10;59.50;;;;;;5076718;28;19950;-59
2023/12/18 10:22:32;;;;;;;;;;;20.10;59.60;;;;;;5078845;28;20383;-59
2023/12/18 10:24:58;;;;;;;;;;;20.10;59.60;;;;;;5070665;28;19924;-59
2023/12/18 10:27:24;;;;;;;;;;;20.00;59.50;;;;;;5078181;28;20442;-59
2023/12/18 10:29:50;;;;;;;;;;;20.00;59.50;;;;;;5073351;28;20007;-59
2023/12/18 10:32:20;;;;;;;;;;;20.10;59.60;;;;;;5041194;28;20014;-59
2023/12/18 10:34:45;;;;;;;;;;;20.00;59.60;;;;;;5064596;28;20015;-60
2023/12/18 10:37:11;;;;;;;;;;;20.00;59.60;;;;;;5078849;28;20411;-59
2023/12/18 10:39:38;;;;;;;;;;;20.00;59.60;;;;;;5078990;28;20292;-58
2023/12/18 10:42:05;;;;;;;;;;;20.00;59.60;;;;;;5060259;28;19925;-59
2023/12/18 10:44:31;;;;;;;;;;;20.10;59.60;;;;;;5079140;28;19925;-59
2023/12/18 10:46:56;;;;;;;;;;;20.00;59.60;;;;;;5061064;28;19925;-59
2023/12/18 10:49:22;;;;;;;;;;;20.00;59.60;;;;;;5043417;28;19969;-59
2023/12/18 10:51:47;;;;;;;;;;;20.10;59.60;;;;;;5078515;28;19957;-59
2023/12/18 10:54:13;;;;;;;;;;;20.10;59.60;;;;;;5060742;28;19929;-59
2023/12/18 10:56:39;;;;;;;;;;;20.10;59.60;;;;;;5078407;28;20367;-58
2023/12/18 10:59:06;;;;;;;;;;;20.10;59.60;;;;;;5078654;28;19966;-59
2023/12/18 11:01:31;;;;;;;;;;;20.10;59.60;;;;;;5078306;28;19931;-59
2023/12/18 11:03:57;;;;;;;;;;;20.10;59.60;;;;;;5067245;28;19928;-60
2023/12/18 11:06:23;;;;;;;;;;;20.10;59.60;;;;;;5069979;28;19925;-59
2023/12/18 11:08:49;;;;;;;;;;;20.10;59.50;;;;;;5039397;28;19920;-60
2023/12/18 11:11:15;;;;;;;;;;;20.10;59.40;;;;;;5057324;28;20007;-60
2023/12/18 11:13:55;;;;;;;;;;;20.10;59.30;;;;;;5074307;28;20020;-60
2023/12/18 11:16:24;;;;;;;;;;;20.10;59.30;;;;;;5056269;28;19977;-60
2023/12/18 11:19:11;;;;;;;;;;;20.10;59.30;;;;;;5055555;28;20438;-60
2023/12/18 11:21:36;;;;;;;;;;;20.10;59.20;;;;;;5037708;28;20341;-61
2023/12/18 11:24:02;;;;;;;;;;;20.10;59.20;;;;;;5054240;28;19924;-60
2023/12/18 11:26:28;;;;;;;;;;;20.10;59.20;;;;;;5054479;28;19928;-60
2023/12/18 11:28:58;;;;;;;;;;;20.10;59.10;;;;;;5057490;28;19924;-59
2023/12/18 11:31:24;;;;;;;;;;;20.10;59.10;;;;;;5056584;28;20373;-59
2023/12/18 11:33:58;;;;;;;;;;;20.10;59.10;;;;;;5075527;28;19932;-59
2023/12/18 11:36:24;;;;;;;;;;;20.10;59.00;;;;;;5057580;28;20398;-58
2023/12/18 11:38:50;;;;;;;;;;;20.10;59.00;;;;;;5056763;28;19925;-58
2023/12/18 11:41:34;;;;;;;;;;;20.20;59.00;;;;;;5074818;28;19924;-59
2023/12/18 11:44:03;;;;;;;;;;;20.20;59.10;;;;;;5074175;28;19924;-59
2023/12/18 11:46:28;;;;;;;;;;;20.20;59.10;;;;;;5057210;28;19924;-59
2023/12/18 11:48:54;;;;;;;;;;;20.20;59.10;;;;;;5056838;28;20380;-59
2023/12/18 11:51:19;;;;;;;;;;;20.20;59.10;;;;;;5074270;28;19931;-59
2023/12/18 11:53:45;;;;;;;;;;;20.20;59.00;;;;;;5040236;28;19927;-59
2023/12/18 11:56:11;;;;;;;;;;;20.20;59.00;;;;;;5054361;28;19975;-59
2023/12/18 11:58:38;;;;;;;;;;;20.20;58.80;;;;;;5053824;28;20402;-59
2023/12/18 12:01:04;;;;;;;;;;;20.20;58.70;;;;;;5054586;28;20027;-59
2023/12/18 12:03:30;;;;;;;;;;;20.20;58.70;;;;;;5037198;28;20015;-59
2023/12/18 12:05:56;;;;;;;;;;;20.20;58.80;;;;;;5053592;28;19948;-59
2023/12/18 12:08:21;;;;;;;;;;;20.20;58.80;;;;;;5054610;28;20308;-59
2023/12/18 12:10:47;;;;;;;;;;;20.20;58.70;;;;;;5036870;28;19928;-59
2023/12/18 12:13:19;;;;;;;;;;;20.20;58.70;;;;;;5053317;28;19948;-59
2023/12/18 12:15:58;;;;;;;;;;;20.20;58.70;;;;;;5054006;28;20032;-59
2023/12/18 12:18:27;;;;;;;;;;;20.20;58.70;;;;;;5036527;28;19925;-58
2023/12/18 12:20:53;;;;;;;;;;;20.20;58.70;;;;;;5053389;28;19925;-59
2023/12/18 12:23:18;;;;;;;;;;;20.20;58.70;;;;;;5054064;28;20319;-59
2023/12/18 12:25:44;;;;;;;;;;;20.20;58.70;;;;;;5054400;28;19932;-59
2023/12/18 12:28:10;;;;;;;;;;;20.20;58.60;;;;;;5035106;28;19925;-59
2023/12/18 12:30:35;;;;;;;;;;;20.20;58.60;;;;;;5036343;28;20046;-59
2023/12/18 12:33:03;;;;;;;;;;;20.20;58.60;;;;;;5053157;28;20004;-59
2023/12/18 12:35:32;;;;;;;;;;;20.20;58.50;;;;;;5036243;28;19947;-59
2023/12/18 12:37:58;;;;;;;;;;;20.20;58.60;;;;;;5053736;28;19939;-59
2023/12/18 12:40:23;;;;;;;;;;;20.20;58.50;;;;;;5019415;28;19925;-59
2023/12/18 12:42:49;;;;;;;;;;;20.20;58.50;;;;;;5054233;28;19924;-59
2023/12/18 12:45:14;;;;;;;;;;;20.20;58.50;;;;;;5053529;28;20479;-59
2023/12/18 12:47:40;;;;;;;;;;;20.30;58.50;;;;;;5052969;28;19931;-60
2023/12/18 12:50:06;;;;;;;;;;;20.20;58.50;;;;;;5053787;28;20027;-60
2023/12/18 12:52:35;;;;;;;;;;;20.20;58.50;;;;;;5053682;28;20292;-59
2023/12/18 12:55:00;;;;;;;;;;;20.20;58.40;;;;;;5052748;28;19920;-59
2023/12/18 12:57:26;;;;;;;;;;;20.20;58.40;;;;;;5053667;28;20074;-59
2023/12/18 12:59:51;;;;;;;;;;;20.20;58.40;;;;;;5053743;28;19924;-59
2023/12/18 13:02:26;;;;;;;;;;;20.20;58.40;;;;;;5034939;28;19924;-59
2023/12/18 13:04:52;;;;;;;;;;;20.20;58.30;;;;;;5053023;28;20372;-59
2023/12/18 13:07:18;;;;;;;;;;;20.20;58.30;;;;;;5042399;28;19935;-59
2023/12/18 13:09:44;;;;;;;;;;;20.20;58.30;;;;;;5059929;28;19924;-59
2023/12/18 13:12:12;;;;;;;;;;;20.20;58.20;;;;;;5073384;28;19925;-59
2023/12/18 13:14:39;;;;;;;;;;;20.20;58.20;;;;;;5073289;28;19932;-59
2023/12/18 13:17:05;;;;;;;;;;;20.20;58.20;;;;;;5054820;28;19924;-59
2023/12/18 13:19:31;;;;;;;;;;;20.30;58.30;;;;;;5073364;28;20380;-60
2023/12/18 13:21:57;;;;;;;;;;;20.20;58.20;;;;;;5055206;28;19925;-59
2023/12/18 13:24:22;;;;;;;;;;;20.30;58.20;;;;;;5072452;28;19924;-59
2023/12/18 13:26:48;;;;;;;;;;;20.30;58.20;;;;;;5072406;28;20389;-60
2023/12/18 13:29:14;;;;;;;;;;;20.30;58.20;;;;;;5072382;28;20007;-59
2023/12/18 13:31:39;;;;;;;;;;;20.30;58.30;;;;;;5073175;28;19924;-59
2023/12/18 13:34:05;;;;;;;;;;;20.30;58.20;;;;;;5071146;28;19928;-60
2023/12/18 13:36:31;;;;;;;;;;;20.30;58.20;;;;;;5034833;28;19932;-59
2023/12/18 13:38:56;;;;;;;;;;;20.30;58.20;;;;;;5035283;28;20397;-59
2023/12/18 13:41:29;;;;;;;;;;;20.30;58.10;;;;;;5073343;28;19932;-59
2023/12/18 13:43:55;;;;;;;;;;;20.30;58.10;;;;;;5071971;28;20364;-59
2023/12/18 13:46:20;;;;;;;;;;;20.30;58.10;;;;;;5054897;28;19930;-59
2023/12/18 13:48:46;;;;;;;;;;;20.30;58.10;;;;;;5055153;28;19924;-59
2023/12/18 13:51:11;;;;;;;;;;;20.30;57.90;;;;;;5053829;28;19932;-61
2023/12/18 13:53:37;;;;;;;;;;;20.30;57.90;;;;;;5054811;28;20406;-60
2023/12/18 13:56:02;;;;;;;;;;;20.30;58.20;;;;;;5072637;28;19925;-60
2023/12/18 13:58:28;;;;;;;;;;;20.30;58.20;;;;;;5072152;28;19924;-59
2023/12/18 14:00:53;;;;;;;;;;;20.30;58.30;;;;;;5054518;28;19924;-59
2023/12/18 14:03:19;;;;;;;;;;;20.30;58.50;;;;;;5073033;28;19943;-59
2023/12/18 14:05:44;;;;;;;;;;;20.30;58.60;;;;;;5072214;28;20007;-59
2023/12/18 14:08:10;;;;;;;;;;;20.30;58.50;;;;;;5053591;28;19970;-59